Tiempo atmosférico en la estación meteorológica de Coruña Del Conde, Burgos (945 m.)



Fecha
DESCASC
Temp. máxima en grados centígrados (hora)
DESCASC
Temp. mínima en grados centígrados (hora)
DESCASC
Temp. media en grados centígrados
DESCASC
Racha de viento máxima en m/sg (hora)
DESCASC
Velocidad máxima media en intervalos de 10 minutos(hora)
DESCASC
Precipitaciones diarias en mm
DESCASC
Precipitaciones de 00:00 a 06:00 en mm
DESCASC
Precipitaciones de 06:00 a 12:00 en mm
DESCASC
Precipitaciones de 12:00 a 18:00 en mm
DESCASC
Precipitaciones de 18:00 a 24:00 en mm
DESCASC
05-04-2020 18 (16:30) 8 (06:40) 13 8.06 (02:10) 5.56 (01:30) 0 0 0 0 0
04-04-2020 17.2 (17:10) 2 (06:00) 9.6 12.22 (13:20) 7.5 (16:40) 0 0 0 0 0
03-04-2020 13.8 (18:10) -2.1 (07:50) 5.9 6.11 (14:40) 4.17 (01:30) 0 0 0 0 0
02-04-2020 10.9 (15:50) 4.6 (00:00) 7.7 12.22 (17:30) 6.94 (17:40) 0.6 0 0.2 0.2 0.2
01-04-2020 10.9 (15:40) 4.1 (00:00) 7.5 10.83 (01:40) 5.83 (01:40) 11 2.6 0.4 0 8
31-03-2020 5.7 (16:40) -1.9 (-00:0) 1.9 14.72 (17:20) 9.17 (16:40) 2 0 1 0.2 0.8
30-03-2020 5.3 (16:30) 0.9 (00:00) 3.1 11.39 (16:50) 6.11 (16:50) 0 0 0 0 0
29-03-2020 15.6 (16:10) 0.7 (00:00) 8.2 10.83 (23:59) 6.67 (18:20) 0 0 0 0 0
28-03-2020 15.4 (17:00) -1.3 (-00:0) 7 7.22 (15:30) 4.44 (15:30) 0 0 0 0 0
27-03-2020 11.4 (16:40) -3.6 (-00:0) 3.9 10.28 (14:30) 6.39 (13:00) 0 0 0 0 0
26-03-2020 8.7 (16:10) -1.7 (-00:0) 3.5 12.78 (13:50) 8.89 (13:50) 0 0 0 0 0
25-03-2020 14.7 (15:20) 0.9 (00:00) 7.8 10.28 (15:00) 6.39 (15:50) 0 0 0 0 0
24-03-2020 12.7 (14:00) 4.3 (00:00) 8.5 11.39 (15:30) 7.5 (13:30) 0 0 0 0 0
23-03-2020 12.6 (15:20) 4.4 (00:00) 8.5 11.11 (13:00) 6.11 (13:00) 0 0 0 0 0
22-03-2020 13.2 (15:30) 5.8 (04:50) 9.5 9.17 (14:00) 4.72 (13:20) 1.4 0 0.4 1 0
21-03-2020 12.2 (14:40) 6.4 (00:00) 9.3 13.61 (11:10) 8.61 (11:10) 0 0 0 0 0
20-03-2020 13.3 (15:00) 6.5 (00:00) 9.9 11.11 (09:20) 6.67 (10:10) 0.4 0.4 0 0 0
19-03-2020 15.3 (16:20) 5.3 (00:00) 10.3 10.83 (12:20) 6.39 (12:50) 0 0 0 0 0
18-03-2020 17.2 (14:50) 5.4 (00:00) 11.3 9.72 (12:40) 5.83 (10:40) 0 0 0 0 0
17-03-2020 12.5 (17:30) 5.8 (00:00) 9.2 15.56 (13:00) 8.89 (14:10) 0.6 0 0.6 0 0
16-03-2020 7.4 (00:00) 0.7 (00:00) 4.1 12.78 (14:30) 8.06 (14:30) 16.6 5.4 6.2 1.8 3.2
15-03-2020 18.8 (15:00) 2.6 (00:00) 10.7 9.72 (17:10) 5.28 (14:00) 4.6 0 0 1.6 3
14-03-2020 17.1 (17:50) 0.4 (00:00) 8.8 5.56 (16:50) 3.06 (18:40) 0 0 0 0 0
13-03-2020 18.5 (15:50) 6.2 (07:30) 12.3 6.39 (14:00) 4.44 (17:40) 0 0 0 0 0
12-03-2020 22.6 (14:10) 8.2 (00:00) 15.4 7.22 (14:10) 5 (17:40) 0 0 0 0 0
11-03-2020 22.1 (16:10) 3.7 (00:00) 12.9 6.39 (16:30) 3.33 (16:50) 0 0 0 0 0
10-03-2020 18.3 (16:30) 3.3 (00:00) 10.8 6.11 (16:10) 3.33 (17:10) 0 0 0 0 0
09-03-2020 11.7 (17:00) 3 (00:00) 7.3 10.56 (16:20) 6.67 (16:30) 0 0 0 0 0

Gráficas

Temp. máximas Temp. mínimas Temp. medias Precipitaciones Rachas de viento máximas Velocidades máximas media en intervalos de 10 minutos

Datos horarios

Fecha y hora oficial Temperatura (ºC) Velocidad del viento (km/h) Dirección del viento Racha (km/h) Dirección de racha Precipitación (mm) Presión (hPa) Tendencia (hPa) Humedad (%)
2020-04-07 23:00:00 11.4 9 Sudeste 26 Este 0 -- -- 88
2020-04-07 22:00:00 10.8 10 Este 14 Este 0 -- -- 89
2020-04-07 21:00:00 12 5 Sudeste 10 Sudeste 0 -- -- 82
2020-04-07 20:00:00 12.9 8 Sudeste 30 Sudoeste 1.8 -- -- 85
2020-04-07 19:00:00 14.8 12 Sudoeste 32 Sudoeste 0 -- -- 71
2020-04-07 18:00:00 15.7 10 Sur 30 Sur 0.8 -- -- 63
2020-04-07 17:00:00 18.2 8 Sur 17 Sudoeste 0 -- -- 52
2020-04-07 16:00:00 17.8 8 Sur 14 Sudoeste 0 -- -- 55
2020-04-07 15:00:00 15.2 11 Sur 21 Sur 0 -- -- 73
2020-04-07 14:00:00 15.4 3 Noroeste 11 Sudoeste 0 -- -- 63
2020-04-07 13:00:00 15.2 2 Sur 12 Oeste 0 -- -- 66
2020-04-07 12:00:00 14.4 4 Sur 14 Sudeste 0 -- -- 70
2020-04-07 11:00:00 12.9 9 Sur 17 Sudeste 0 -- -- 81
2020-04-07 10:00:00 10.9 9 Sudeste 16 Este 0 -- -- 92
2020-04-07 09:00:00 9.4 9 Este 14 Este 0 -- -- 95
2020-04-07 08:00:00 8.3 0 Calma 10 Este 0 -- -- 94
2020-04-07 07:00:00 8.7 7 Este 14 Este 0.2 -- -- 94
2020-04-07 06:00:00 9.3 2 Sudeste 5 Este 0 -- -- 93
2020-04-07 05:00:00 9.3 3 Sudeste 5 Sudeste 0 -- -- 93
2020-04-07 04:00:00 8.9 5 Nordeste 9 Este 0 -- -- 92
2020-04-07 03:00:00 8.9 4 Nordeste 8 Este 0 -- -- 91
2020-04-07 02:00:00 8.8 7 Este 9 Este 0 -- -- 91
2020-04-07 01:00:00 8.9 4 Este 8 Este 0 -- -- 91
2020-04-07 00:00:00 9.3 6 Nordeste 10 Nordeste 0 -- -- 89
2020-04-06 23:00:00 9.6 4 Nordeste 9 Nordeste 0 -- -- 90
2020-04-06 22:00:00 10.1 3 Nordeste 8 Norte 0 -- -- 88
2020-04-06 21:00:00 10.3 4 Norte 14 Noroeste 0 -- -- 85
2020-04-06 20:00:00 11.5 3 Noroeste 8 Noroeste 0.2 -- -- 87
2020-04-06 19:00:00 11.3 0 Calma 9 Este 0.6 -- -- 90
2020-04-06 18:00:00 11.6 3 Sudeste 11 Noroeste 1.4 -- -- 88
2020-04-06 17:00:00 11.2 5 Sudeste 17 Oeste 6 -- -- 86
2020-04-06 16:00:00 14.9 6 Oeste 17 Oeste 0 -- -- 65
2020-04-06 15:00:00 14 7 Sudoeste 21 Oeste 0 -- -- 69
2020-04-06 14:00:00 13.7 10 Oeste 20 Sudoeste 0 -- -- 69
2020-04-06 13:00:00 13.2 13 Oeste 22 Sudoeste 0 -- -- 71
2020-04-06 12:00:00 12.6 13 Sudoeste 22 Sudoeste 0 -- -- 76
2020-04-06 11:00:00 12.8 8 Oeste 15 Oeste 0 -- -- 76
2020-04-06 10:00:00 12.6 9 Sudeste 12 Sudeste 0 -- -- 82
2020-04-06 09:00:00 10.2 2 Sudeste 15 Este 0 -- -- 90
2020-04-06 08:00:00 9.7 10 Sudeste 17 Sudeste 0 -- -- 90
2020-04-06 07:00:00 9.6 12 Este 18 Sudeste 0 -- -- 89
2020-04-06 06:00:00 9 8 Este 12 Este 0 -- -- 90
2020-04-06 05:00:00 9.6 6 Este 13 Este 0 -- -- 90
2020-04-06 04:00:00 9.7 8 Este 11 Este 0 -- -- 91
2020-04-06 03:00:00 10.1 6 Este 10 Nordeste 0.2 -- -- 89
2020-04-06 02:00:00 10.4 4 Nordeste 8 Norte 0.6 -- -- 87
2020-04-06 01:00:00 11.1 4 Noroeste 12 Noroeste 0.2 -- -- 79
2020-04-06 00:00:00 12.2 4 Sudeste 8 Sudeste 0 -- -- 67
2020-04-05 23:00:00 12.2 5 Sudeste 8 Sudeste 0 -- -- 66
2020-04-05 22:00:00 12.9 4 Sudeste 22 Sur 0 -- -- 63
2020-04-05 21:00:00 14.4 10 Sur 18 Sur 0 -- -- 57
2020-04-05 20:00:00 15.2 12 Sudoeste 28 Sudoeste 0 -- -- 54
2020-04-05 19:00:00 17.1 13 Sur 27 Sur 0 -- -- 48
2020-04-05 18:00:00 16.6 13 Sudoeste 22 Sur 0 -- -- 48
2020-04-05 17:00:00 17.5 13 Sur 29 Sur 0 -- -- 47
2020-04-05 16:00:00 17.3 12 Sur 26 Sudoeste 0 -- -- 45
2020-04-05 15:00:00 16.6 15 Sur 28 Sur 0 -- -- 46
2020-04-05 14:00:00 16.1 15 Sur 26 Sudoeste 0 -- -- 47
2020-04-05 13:00:00 16 15 Sur 27 Sur 0 -- -- 48
2020-04-05 12:00:00 14.7 12 Sudeste 23 Sudeste 0 -- -- 56
2020-04-05 11:00:00 12.7 15 Sudeste 26 Sudeste 0 -- -- 65
2020-04-05 10:00:00 10.3 15 Sudeste 23 Sudeste 0 -- -- 75
2020-04-05 09:00:00 8.5 8 Este 13 Este 0 -- -- 81
2020-04-05 08:00:00 8.2 10 Sudeste 16 Sudeste 0 -- -- 81
2020-04-05 07:00:00 8.1 10 Sudeste 21 Sudeste 0 -- -- 81
2020-04-05 06:00:00 8.4 14 Sudeste 24 Sudeste 0 -- -- 77
2020-04-05 05:00:00 8.6 12 Sudeste 26 Sudeste 0 -- -- 74
2020-04-05 04:00:00 8.7 13 Sudeste 23 Sudeste 0 -- -- 71
2020-04-05 03:00:00 8.4 12 Sudeste 29 Sudeste 0 -- -- 70
2020-04-05 02:00:00 9 18 Sudeste 28 Sudeste 0 -- -- 67
2020-04-05 01:00:00 9.7 16 Sudeste 26 Sudeste 0 -- -- 64
2020-04-05 00:00:00 10.1 16 Sudeste 26 Sudeste 0 -- -- 63
2020-04-04 23:00:00 10.8 18 Sudeste 24 Sudeste 0 -- -- 60
2020-04-04 22:00:00 11.2 10 Sur 25 Sur 0 -- -- 57
2020-04-04 21:00:00 12.5 17 Sur 37 Sudoeste 0 -- -- 52
2020-04-04 20:00:00 14.1 19 Sur 32 Sur 0 -- -- 48
2020-04-04 19:00:00 15.1 22 Sur 37 Sur 0 -- -- 44
2020-04-04 18:00:00 15.9 26 Sur 41 Sudeste 0 -- -- 38
2020-04-04 17:00:00 17.1 23 Sur 42 Sudeste 0 -- -- 40
2020-04-04 16:00:00 16.5 22 Sudeste 41 Sudeste 0 -- -- 41
2020-04-04 15:00:00 16.1 24 Sudeste 40 Sudeste 0 -- -- 37
2020-04-04 14:00:00 15.5 23 Sudeste 44 Sudeste 0 -- -- 44
2020-04-04 13:00:00 14.2 23 Sudeste 41 Sudeste 0 -- -- 48
2020-04-04 12:00:00 12.7 19 Sudeste 33 Sudeste 0 -- -- 48
2020-04-04 11:00:00 10.5 17 Sudeste 36 Sudeste 0 -- -- 57
2020-04-04 10:00:00 8.1 19 Este 32 Sudeste 0 -- -- 60
2020-04-04 09:00:00 5.6 16 Este 26 Este 0 -- -- 67
2020-04-04 08:00:00 3.2 12 Sudeste 19 Este 0 -- -- 75
2020-04-04 07:00:00 2.1 10 Este 14 Este 0 -- -- 81
2020-04-04 06:00:00 2 6 Este 12 Este 0 -- -- 82
2020-04-04 05:00:00 2.9 8 Este 16 Este 0 -- -- 77
2020-04-04 04:00:00 3.4 10 Este 16 Este 0 -- -- 72
2020-04-04 03:00:00 3.7 11 Este 15 Este 0 -- -- 70
2020-04-04 02:00:00 3 0 Calma 6 Norte 0 -- -- 72
2020-04-04 01:00:00 3.1 5 Norte 7 Nordeste 0 -- -- 75
2020-04-04 00:00:00 4.7 4 Norte 8 Nordeste 0 -- -- 69
2020-04-03 23:00:00 6.9 6 Nordeste 8 Nordeste 0 -- -- 58
2020-04-03 22:00:00 8.3 3 Noroeste 10 Oeste 0 -- -- 52
2020-04-03 21:00:00 10.3 6 Oeste 8 Noroeste 0 -- -- 42
2020-04-03 20:00:00 12.7 6 Noroeste 14 Oeste 0 -- -- 40
2020-04-03 19:00:00 13.5 6 Noroeste 15 Oeste 0 -- -- 38
2020-04-03 18:00:00 13.5 8 Oeste 17 Noroeste 0 -- -- 39
2020-04-03 17:00:00 13.3 7 Oeste 20 Oeste 0 -- -- 39
2020-04-03 16:00:00 12.6 7 Oeste 18 Oeste 0 -- -- 41
2020-04-03 15:00:00 11.4 12 Sudoeste 22 Oeste 0 -- -- 43
2020-04-03 14:00:00 9.9 9 Oeste 18 Oeste 0 -- -- 52
2020-04-03 13:00:00 8.1 6 Oeste 16 Oeste 0 -- -- 55
2020-04-03 12:00:00 5.9 9 Oeste 14 Oeste 0 -- -- 67
2020-04-03 11:00:00 3.7 6 Sudoeste 9 Sudoeste 0 -- -- 77
2020-04-03 10:00:00 2.3 2 Sur 4 Sur 0 -- -- 86
2020-04-03 09:00:00 -0.3 0 Calma 3 Este 0 -- -- 95
2020-04-03 08:00:00 -2 0 Calma 4 Sudoeste 0 -- -- 93
2020-04-03 07:00:00 -2 0 Calma 6 Sudoeste 0 -- -- 92
2020-04-03 06:00:00 -1.4 3 Sur 10 Sudoeste 0 -- -- 90
2020-04-03 05:00:00 -0.4 6 Sudoeste 10 Sudoeste 0 -- -- 89
2020-04-03 04:00:00 0.6 5 Nordeste 10 Nordeste 0 -- -- 78
2020-04-03 03:00:00 1 3 Sudoeste 10 Norte 0 -- -- 81
2020-04-03 02:00:00 2.5 4 Norte 22 Norte 0 -- -- 74
2020-04-03 01:00:00 3.4 9 Norte 20 Norte 0 -- -- 72
2020-04-03 00:00:00 4.6 14 Norte 31 Norte 0 -- -- 69
2020-04-02 23:00:00 5.3 18 Norte 29 Norte 0 -- -- 71
2020-04-02 22:00:00 5.9 19 Norte 27 Norte 0 -- -- 68
2020-04-02 21:00:00 7 21 Norte 32 Norte 0.2 -- -- 67
2020-04-02 20:00:00 8.3 22 Norte 37 Norte 0 -- -- 65
2020-04-02 19:00:00 8.8 22 Norte 35 Norte 0 -- -- 68
2020-04-02 18:00:00 9.4 19 Norte 44 Norte 0 -- -- 67
2020-04-02 17:00:00 9.7 18 Norte 30 Norte 0 -- -- 66
2020-04-02 16:00:00 10.3 15 Norte 24 Norte 0 -- -- 66
2020-04-02 15:00:00 7.9 7 Nordeste 18 Norte 0.2 -- -- 82
2020-04-02 14:00:00 9.1 7 Noroeste 21 Oeste 0 -- -- 77
2020-04-02 13:00:00 8.6 11 Oeste 18 Oeste 0 -- -- 81
2020-04-02 12:00:00 7.6 6 Oeste 10 Oeste 0.2 -- -- 86
2020-04-02 11:00:00 6.6 2 Noroeste 5 Noroeste 0 -- -- 86
2020-04-02 10:00:00 6.4 4 Este 8 Este 0 -- -- 89
2020-04-02 09:00:00 5.4 3 Este 8 Nordeste 0 -- -- 94
2020-04-02 08:00:00 4.9 2 Nordeste 6 Norte 0 -- -- 94
2020-04-02 07:00:00 4.9 3 Norte 5 Nordeste 0 -- -- 94
2020-04-02 06:00:00 4.9 0 Calma 4 Nordeste 0 -- -- 93
2020-04-02 05:00:00 4.6 3 Norte 4 Norte 0 -- -- 93
2020-04-02 04:00:00 4.8 2 Norte 6 Norte 0 -- -- 91
2020-04-02 03:00:00 5.1 0 Calma 10 Este 0 -- -- 91
2020-04-02 02:00:00 5.3 8 Este 21 Este 0 -- -- 89
2020-04-02 01:00:00 5.3 11 Este 25 Este 0 -- -- 90
2020-04-02 00:00:00 5.8 13 Este 24 Este 0.2 -- -- 93
2020-04-01 23:00:00 5.9 4 Sudeste 8 Sudeste 0 -- -- 94
2020-04-01 22:00:00 5.8 3 Nordeste 8 Nordeste 0.6 -- -- 93
2020-04-01 21:00:00 5.8 2 Norte 11 Oeste 2.4 -- -- 91
2020-04-01 20:00:00 5.7 4 Sudoeste 21 Oeste 4.8 -- -- 89
2020-04-01 19:00:00 7.6 9 Oeste 17 Sudeste 0 -- -- 85
2020-04-01 18:00:00 9.7 12 Este 24 Este 0 -- -- 69
2020-04-01 17:00:00 10.1 15 Este 27 Este 0 -- -- 71
2020-04-01 16:00:00 10.4 20 Este 37 Este 0 -- -- 71
2020-04-01 15:00:00 10 14 Este 24 Este 0 -- -- 74
2020-04-01 14:00:00 8.8 13 Sudeste 29 Sudeste 0 -- -- 79
2020-04-01 13:00:00 8.1 15 Este 29 Sudeste 0 -- -- 83
2020-04-01 12:00:00 7.1 16 Sudeste 30 Este 0 -- -- 87
2020-04-01 11:00:00 6.9 17 Este 29 Este 0.2 -- -- 87
2020-04-01 10:00:00 5.3 13 Este 27 Este 0 -- -- 91
2020-04-01 09:00:00 4.4 10 Este 22 Este 0 -- -- 91
2020-04-01 08:00:00 4.2 9 Este 24 Sudeste 0 -- -- 92
2020-04-01 07:00:00 4.4 15 Este 27 Este 0.2 -- -- 93
2020-04-01 06:00:00 4.7 15 Este 33 Este 0.8 -- -- 93
2020-04-01 05:00:00 4.9 21 Sudeste 35 Sudeste 0.2 -- -- 94
2020-04-01 04:00:00 4.9 13 Sudeste 27 Sudeste 0.4 -- -- 94
2020-04-01 03:00:00 4.8 15 Sudeste 31 Sudeste 0.6 -- -- 93
2020-04-01 02:00:00 4.9 18 Sudeste 39 Este 0.2 -- -- 93
2020-04-01 01:00:00 4.7 19 Sudeste 35 Este 0.4 -- -- 92
2020-04-01 00:00:00 4.9 22 Este 39 Este 0.2 -- -- 90
2020-03-31 23:00:00 4.9 20 Este 35 Este 0 -- -- 89
2020-03-31 22:00:00 4.8 24 Este 46 Este 0 -- -- 88
2020-03-31 21:00:00 5 21 Sudeste 40 Sudeste 0 -- -- 88
2020-03-31 20:00:00 5.4 23 Este 41 Este 0 -- -- 86
2020-03-31 19:00:00 4.9 17 Este 44 Este 0.6 -- -- 89
2020-03-31 18:00:00 5.4 22 Este 53 Este 0 -- -- 81
2020-03-31 17:00:00 5.4 26 Este 52 Este 0 -- -- 80
2020-03-31 16:00:00 5.1 24 Este 56 Sudeste 0 -- -- 80
2020-03-31 15:00:00 4.4 26 Este 48 Este 0 -- -- 82
2020-03-31 14:00:00 3.8 28 Este 46 Este 0 -- -- 82
2020-03-31 13:00:00 2.9 26 Este 44 Este 0.2 -- -- 87
2020-03-31 12:00:00 2 28 Este 49 Este 0.4 -- -- 86
2020-03-31 11:00:00 0.8 26 Este 46 Este 0.6 -- -- 90
2020-03-31 10:00:00 0.5 22 Este 38 Este 0 -- -- 86
2020-03-31 09:00:00 -0.6 14 Este 30 Este 0 -- -- 89
2020-03-31 08:00:00 -1.6 14 Sudeste 26 Sudeste 0 -- -- 89
2020-03-31 07:00:00 -1.9 15 Este 27 Este 0 -- -- 91
2020-03-31 06:00:00 -1.6 7 Este 15 Este 0 -- -- 89
2020-03-31 05:00:00 -1.3 6 Este 18 Este 0 -- -- 91
2020-03-31 04:00:00 -1.2 8 Este 14 Nordeste 0 -- -- 90
2020-03-31 03:00:00 -1 5 Este 16 Este 0 -- -- 90
2020-03-31 02:00:00 -0.7 9 Este 30 Sudeste 0 -- -- 87
2020-03-31 01:00:00 1 11 Sudeste 22 Sudeste 0 -- -- 62
2020-03-31 00:00:00 1.2 10 Nordeste 24 Nordeste 0 -- -- 59
2020-03-30 23:00:00 1.3 12 Nordeste 24 Nordeste 0 -- -- 57
2020-03-30 22:00:00 1.5 12 Nordeste 27 Nordeste 0 -- -- 55
2020-03-30 21:00:00 1.8 17 Norte 27 Norte 0 -- -- 56
2020-03-30 20:00:00 3.1 17 Norte 30 Norte 0 -- -- 47
2020-03-30 19:00:00 4.4 17 Norte 27 Norte 0 -- -- 42
2020-03-30 18:00:00 4.4 16 Norte 36 Norte 0 -- -- 42
2020-03-30 17:00:00 4.6 21 Norte 41 Norte 0 -- -- 43
2020-03-30 16:00:00 3.9 21 Norte 31 Norte 0 -- -- 47
2020-03-30 15:00:00 4 19 Norte 30 Norte 0 -- -- 47
2020-03-30 14:00:00 3.6 15 Norte 27 Norte 0 -- -- 47
2020-03-30 13:00:00 2.4 18 Norte 31 Nordeste 0 -- -- 52
2020-03-30 12:00:00 2.1 18 Norte 27 Norte 0 -- -- 55
2020-03-30 11:00:00 1.3 19 Norte 28 Norte 0 -- -- 58
2020-03-30 10:00:00 1.4 15 Norte 23 Norte 0 -- -- 56
2020-03-30 09:00:00 0.9 17 Norte 31 Norte 0 -- -- 62
2020-03-30 08:00:00 1.1 12 Norte 25 Norte 0 -- -- 65
2020-03-30 07:00:00 1.5 13 Norte 23 Norte 0 -- -- 71
2020-03-30 06:00:00 2 10 Norte 18 Norte 0 -- -- 76
2020-03-30 05:00:00 2.7 13 Norte 28 Norte 0 -- -- 71
2020-03-30 04:00:00 3 19 Norte 31 Norte 0 -- -- 71
2020-03-30 03:00:00 3.2 15 Norte 26 Norte 0 -- -- 76
2020-03-30 02:00:00 4.3 12 Norte 27 Norte 0 -- -- 75
2020-03-30 01:00:00 4.6 17 Norte 31 Norte 0 -- -- 72
2020-03-30 00:00:00 5 22 Norte 39 Norte 0 -- -- 71
2020-03-29 23:00:00 5.7 23 Norte 32 Norte 0 -- -- 69
2020-03-29 22:00:00 6.3 19 Norte 33 Norte 0 -- -- 66
2020-03-29 21:00:00 7.9 20 Norte 34 Norte 0 -- -- 58
2020-03-29 20:00:00 11 23 Norte 30 Norte 0 -- -- 44
2020-03-29 19:00:00 13.6 17 Norte 33 Noroeste 0 -- -- 38
2020-03-29 18:00:00 14.9 20 Noroeste 33 Noroeste 0 -- -- 31
2020-03-29 17:00:00 15.3 18 Noroeste 32 Noroeste 0 -- -- 29
2020-03-29 16:00:00 15.4 15 Noroeste 30 Noroeste 0 -- -- 32
2020-03-29 15:00:00 15 19 Noroeste 32 Oeste 0 -- -- 37
2020-03-29 14:00:00 14.3 20 Noroeste 36 Oeste 0 -- -- 39
2020-03-29 13:00:00 12.6 15 Oeste 23 Oeste 0 -- -- 47
2020-03-29 12:00:00 10.5 10 Oeste 16 Oeste 0 -- -- 59
2020-03-29 11:00:00 7.7 5 Sudoeste 10 Sudoeste 0 -- -- 62
2020-03-29 10:00:00 5.4 2 Noroeste 5 Sudeste 0 -- -- 74
2020-03-29 09:00:00 3.1 3 Sudeste 5 Sudeste 0 -- -- 81
2020-03-29 08:00:00 1 0 Calma 5 Nordeste 0 -- -- 83
2020-03-29 07:00:00 1.2 0 Calma 7 Sudeste 0 -- -- 81
2020-03-29 06:00:00 1.9 0 Calma 2 Norte 0 -- -- 79
2020-03-29 05:00:00 2.5 2 Nordeste 6 Este 0 -- -- 78
2020-03-29 03:00:00 5.1 7 Sur 12 Este 0 -- -- 68
2020-03-29 01:00:00 5.7 8 Este 15 Este 0 -- -- 65
2020-03-29 00:00:00 5.7 6 Este 14 Este 0 -- -- 62
2020-03-28 23:00:00 6.5 2 Nordeste 12 Este 0 -- -- 60
2020-03-28 22:00:00 7.8 6 Nordeste 8 Nordeste 0 -- -- 56
2020-03-28 21:00:00 9.5 7 Nordeste 12 Nordeste 0 -- -- 50
2020-03-28 20:00:00 11.6 3 Nordeste 9 Noroeste 0 -- -- 43
2020-03-28 19:00:00 14 6 Sur 14 Sur 0 -- -- 37
2020-03-28 18:00:00 15 5 Sur 13 Sudeste 0 -- -- 35
2020-03-28 17:00:00 15.4 6 Sur 23 Sur 0 -- -- 33
2020-03-28 16:00:00 14.7 4 Sudeste 26 Sudeste 0 -- -- 36
2020-03-28 15:00:00 14.6 12 Sudeste 21 Sudeste 0 -- -- 35
2020-03-28 14:00:00 13.8 11 Sudeste 23 Sur 0 -- -- 37
2020-03-28 13:00:00 12.5 10 Sur 22 Sudeste 0 -- -- 38
2020-03-28 12:00:00 11.4 7 Sur 18 Sur 0 -- -- 40
2020-03-28 11:00:00 9.9 6 Sur 17 Sudeste 0 -- -- 48
2020-03-28 10:00:00 7.9 6 Sudeste 14 Sudeste 0 -- -- 54
2020-03-28 09:00:00 5.6 6 Sudeste 14 Sudeste 0 -- -- 60
2020-03-28 08:00:00 1.3 3 Nordeste 15 Este 0 -- -- 70
2020-03-28 07:00:00 0.7 12 Este 18 Este 0 -- -- 71
2020-03-28 06:00:00 -0.3 8 Este 12 Este 0 -- -- 66
2020-03-28 05:00:00 0.4 8 Este 10 Este 0 -- -- 66
2020-03-28 04:00:00 -0.8 5 Nordeste 8 Este 0 -- -- 72
2020-03-28 03:00:00 -0.3 2 Nordeste 9 Este 0 -- -- 68
2020-03-28 02:00:00 1.2 6 Este 9 Este 0 -- -- 62
2020-03-28 01:00:00 1.3 2 Norte 4 Nordeste 0 -- -- 63
2020-03-28 00:00:00 2.3 3 Sudeste 6 Nordeste 0 -- -- 61
2020-03-27 23:00:00 3.1 5 Nordeste 12 Este 0 -- -- 59
2020-03-27 22:00:00 4 9 Este 13 Este 0 -- -- 54
2020-03-27 21:00:00 5.3 9 Sudeste 15 Sudeste 0 -- -- 46
2020-03-27 20:00:00 6.5 8 Sudeste 21 Sudeste 0 -- -- 38
2020-03-27 19:00:00 9.5 16 Sudeste 29 Sur 0 -- -- 32
2020-03-27 18:00:00 10.6 18 Sudeste 32 Sudeste 0 -- -- 34
2020-03-27 17:00:00 11 18 Sudeste 33 Sudeste 0 -- -- 34
2020-03-27 16:00:00 11.3 17 Sudeste 33 Sudeste 0 -- -- 34
2020-03-27 15:00:00 10.8 14 Sudeste 37 Sudeste 0 -- -- 35
2020-03-27 14:00:00 10 22 Sudeste 36 Sudeste 0 -- -- 37
2020-03-27 13:00:00 9 23 Sudeste 37 Sudeste 0 -- -- 40
2020-03-27 12:00:00 8 18 Este 37 Este 0 -- -- 46
2020-03-27 11:00:00 6 20 Sudeste 34 Este 0 -- -- 49
2020-03-27 10:00:00 3.9 20 Este 32 Este 0 -- -- 58
2020-03-27 09:00:00 2.2 8 Sudeste 15 Este 0 -- -- 63
2020-03-27 08:00:00 -1.9 6 Sudeste 14 Sudeste 0 -- -- 70
2020-03-27 07:00:00 -3.6 8 Este 15 Este 0 -- -- 75
2020-03-27 06:00:00 -2.9 5 Este 10 Nordeste 0 -- -- 71
2020-03-27 05:00:00 -2.7 5 Este 9 Este 0 -- -- 70
2020-03-27 04:00:00 -2.2 7 Este 14 Nordeste 0 -- -- 69
2020-03-27 03:00:00 -1.5 5 Nordeste 11 Nordeste 0 -- -- 69
2020-03-27 02:00:00 -1 5 Este 22 Norte 0 -- -- 66
2020-03-27 01:00:00 0.4 12 Norte 24 Norte 0 -- -- 63
2020-03-27 00:00:00 1.9 17 Norte 31 Norte 0 -- -- 58
2020-03-26 23:00:00 3.1 12 Nordeste 26 Norte 0 -- -- 60
2020-03-26 22:00:00 3.7 18 Norte 26 Norte 0 -- -- 62
2020-03-26 21:00:00 4.5 13 Norte 22 Norte 0 -- -- 59
2020-03-26 20:00:00 4.6 7 Noroeste 17 Norte 0 -- -- 62
2020-03-26 19:00:00 5.9 14 Norte 28 Noroeste 0 -- -- 51
2020-03-26 18:00:00 7.9 19 Noroeste 27 Noroeste 0 -- -- 51
2020-03-26 17:00:00 8.3 21 Noroeste 32 Noroeste 0 -- -- 47
2020-03-26 16:00:00 8.3 17 Noroeste 36 Norte 0 -- -- 46
2020-03-26 15:00:00 7.6 23 Norte 42 Norte 0 -- -- 49
2020-03-26 14:00:00 6.6 25 Norte 46 Norte 0 -- -- 52
2020-03-26 13:00:00 7.9 26 Norte 42 Noroeste 0 -- -- 52
2020-03-26 12:00:00 7.7 24 Norte 41 Norte 0 -- -- 54
2020-03-26 11:00:00 7.3 24 Noroeste 44 Norte 0 -- -- 57
2020-03-26 10:00:00 6.5 24 Norte 37 Noroeste 0 -- -- 56
2020-03-26 09:00:00 4.5 20 Norte 36 Noroeste 0 -- -- 67
2020-03-26 08:00:00 0 3 Sur 9 Oeste 0 -- -- 76
2020-03-26 07:00:00 -1.3 3 Oeste 10 Noroeste 0 -- -- 75
2020-03-26 06:00:00 -1.2 7 Noroeste 10 Noroeste 0 -- -- 75
2020-03-26 05:00:00 -0.7 3 Sudoeste 11 Oeste 0 -- -- 62
2020-03-26 04:00:00 0.8 4 Noroeste 14 Norte 0 -- -- 54
2020-03-26 03:00:00 0.6 0 Calma 11 Norte 0 -- -- 46
2020-03-26 02:00:00 2.6 8 Noroeste 30 Noroeste 0 -- -- 41
2020-03-26 01:00:00 2.9 14 Norte 32 Norte 0 -- -- 46
2020-03-26 00:00:00 3.8 14 Norte 33 Norte 0 -- -- 36
2020-03-25 23:00:00 4.8 17 Norte 26 Norte 0 -- -- 40
2020-03-25 22:00:00 5.1 14 Norte 18 Norte 0 -- -- 48
2020-03-25 21:00:00 7.1 12 Norte 20 Norte 0 -- -- 46
2020-03-25 20:00:00 9.8 15 Norte 24 Noroeste 0 -- -- 42
2020-03-25 19:00:00 12.5 14 Norte 31 Norte 0 -- -- 39
2020-03-25 18:00:00 14 20 Norte 30 Noroeste 0 -- -- 35
2020-03-25 17:00:00 14.7 19 Noroeste 33 Noroeste 0 -- -- 34
2020-03-25 16:00:00 14.6 22 Noroeste 36 Noroeste 0 -- -- 26
2020-03-25 15:00:00 14.2 21 Noroeste 37 Noroeste 0 -- -- 41
2020-03-25 14:00:00 13.4 18 Noroeste 34 Oeste 0 -- -- 49
2020-03-25 13:00:00 12.6 19 Noroeste 32 Noroeste 0 -- -- 53
2020-03-25 12:00:00 11.4 18 Noroeste 27 Noroeste 0 -- -- 61
2020-03-25 11:00:00 9.9 9 Oeste 17 Sudoeste 0 -- -- 69
2020-03-25 10:00:00 6.5 9 Sudoeste 13 Sudoeste 0 -- -- 83
2020-03-25 09:00:00 4.2 5 Sudoeste 8 Sudoeste 0 -- -- 86
2020-03-25 08:00:00 2.1 3 Sudoeste 6 Sudoeste 0 -- -- 92
2020-03-25 07:00:00 1.4 2 Sudoeste 5 Nordeste 0 -- -- 90
2020-03-25 06:00:00 1.3 4 Norte 6 Nordeste 0 -- -- 91
2020-03-25 05:00:00 1.7 5 Norte 6 Norte 0 -- -- 90
2020-03-25 04:00:00 2.5 4 Nordeste 6 Nordeste 0 -- -- 88
2020-03-25 03:00:00 2.5 3 Norte 8 Nordeste 0 -- -- 88
2020-03-25 02:00:00 2.6 4 Norte 7 Nordeste 0 -- -- 87
2020-03-25 01:00:00 3.6 3 Nordeste 13 Este 0 -- -- 83
2020-03-25 00:00:00 4.3 7 Este 12 Este 0 -- -- 81
2020-03-24 23:00:00 4.8 8 Este 10 Este 0 -- -- 81
2020-03-24 22:00:00 5.3 7 Este 10 Este 0 -- -- 79
2020-03-24 21:00:00 6.9 6 Sudeste 9 Sudeste 0 -- -- 74
2020-03-24 20:00:00 8.4 6 Sudeste 20 Sudeste 0 -- -- 69
2020-03-24 19:00:00 10.7 11 Sudeste 26 Sudeste 0 -- -- 60
2020-03-24 18:00:00 11.8 19 Este 33 Sudeste 0 -- -- 56
2020-03-24 17:00:00 12.1 21 Sudeste 35 Sudeste 0 -- -- 55
2020-03-24 16:00:00 12.7 18 Sudeste 41 Sudeste 0 -- -- 53
2020-03-24 15:00:00 12.7 21 Sudeste 38 Sudeste 0 -- -- 55
2020-03-24 14:00:00 12.7 19 Sudeste 40 Sudeste 0 -- -- 52
2020-03-24 13:00:00 12.6 22 Sudeste 36 Sudeste 0 -- -- 57
2020-03-24 12:00:00 12 18 Sudeste 36 Sudeste 0 -- -- 55
2020-03-24 11:00:00 9.8 17 Este 37 Este 0 -- -- 67
2020-03-24 10:00:00 9.5 16 Este 33 Este 0 -- -- 69
2020-03-24 09:00:00 7.3 13 Este 26 Este 0 -- -- 78
2020-03-24 08:00:00 5.9 8 Nordeste 17 Este 0 -- -- 86
2020-03-24 07:00:00 5.4 8 Este 14 Este 0 -- -- 89
2020-03-24 06:00:00 6.2 8 Nordeste 23 Sudeste 0 -- -- 88
2020-03-24 05:00:00 6.1 9 Este 18 Este 0 -- -- 88
2020-03-24 04:00:00 6.9 11 Sudeste 26 Este 0 -- -- 87
2020-03-24 03:00:00 7.3 12 Sudeste 24 Este 0 -- -- 84
2020-03-24 02:00:00 7.5 15 Este 33 Este 0 -- -- 83
2020-03-24 01:00:00 7.9 14 Este 24 Este 0 -- -- 83
2020-03-24 00:00:00 7.1 9 Este 18 Este 0 -- -- 85
2020-03-23 23:00:00 7.2 11 Este 21 Este 0 -- -- 83
2020-03-23 22:00:00 7.7 11 Este 27 Este 0 -- -- 79
2020-03-23 21:00:00 7.7 10 Este 18 Este 0 -- -- 79
2020-03-23 20:00:00 8.5 8 Este 30 Este 0 -- -- 75
2020-03-23 19:00:00 10.4 14 Este 31 Sudeste 0 -- -- 67
2020-03-23 18:00:00 11.1 17 Este 40 Sudeste 0 -- -- 68
2020-03-23 17:00:00 12.3 17 Sudeste 36 Este 0 -- -- 59
2020-03-23 16:00:00 11.6 17 Este 34 Este 0 -- -- 63
2020-03-23 15:00:00 11.7 21 Sudeste 31 Este 0 -- -- 68
2020-03-23 14:00:00 11.9 16 Este 37 Este 0 -- -- 61
2020-03-23 13:00:00 11.7 22 Este 40 Este 0 -- -- 55
2020-03-23 12:00:00 10.9 17 Este 35 Sudeste 0 -- -- 61
2020-03-23 11:00:00 9.9 19 Este 33 Este 0 -- -- 66
2020-03-23 10:00:00 9.6 18 Este 31 Este 0 -- -- 76
2020-03-23 09:00:00 7.2 13 Este 23 Sudeste 0 -- -- 82
2020-03-23 08:00:00 4.8 6 Sudeste 14 Sudeste 0 -- -- 88
2020-03-23 07:00:00 5 8 Sudeste 17 Este 0 -- -- 85
2020-03-23 06:00:00 6 11 Este 21 Este 0 -- -- 82
2020-03-23 05:00:00 4.8 8 Este 15 Este 0 -- -- 86
2020-03-23 04:00:00 4.4 3 Este 10 Este 0 -- -- 86
2020-03-23 03:00:00 5 6 Este 12 Este 0 -- -- 84
2020-03-23 02:00:00 5.8 5 Nordeste 18 Este 0 -- -- 80
2020-03-23 01:00:00 6.2 8 Este 17 Este 0 -- -- 77
2020-03-23 00:00:00 6 9 Este 20 Este 0 -- -- 77
2020-03-22 23:00:00 6 9 Este 18 Este 0 -- -- 77
2020-03-22 22:00:00 7 9 Este 14 Este 0 -- -- 72
2020-03-22 21:00:00 7.6 9 Este 15 Este 0 -- -- 73
2020-03-22 20:00:00 9.5 8 Sudeste 24 Sudeste 0 -- -- 66
2020-03-22 19:00:00 11.2 7 Este 20 Este 0 -- -- 59
2020-03-22 18:00:00 11.5 7 Este 17 Sudeste 0 -- -- 59
2020-03-22 17:00:00 11.8 10 Nordeste 27 Este 0 -- -- 59
2020-03-22 16:00:00 12.8 6 Este 26 Sudeste 0 -- -- 56
2020-03-22 15:00:00 11.9 3 Norte 17 Este 0.6 -- -- 67
2020-03-22 14:00:00 10.2 16 Este 33 Sudeste 0.4 -- -- 76
2020-03-22 13:00:00 11.4 9 Sudeste 22 Sudeste 0 -- -- 68
2020-03-22 12:00:00 11.2 12 Sur 19 Sur 0.2 -- -- 72
2020-03-22 11:00:00 10 7 Sudeste 17 Sudeste 0 -- -- 77
2020-03-22 10:00:00 8 2 Sur 7 Sudeste 0 -- -- 89
2020-03-22 09:00:00 6.9 5 Este 8 Este 0 -- -- 92
2020-03-22 08:00:00 6.2 2 Este 5 Nordeste 0.2 -- -- 93
2020-03-22 07:00:00 6.1 3 Nordeste 8 Norte 0 -- -- 92
2020-03-22 06:00:00 6.2 3 Este 9 Sudeste 0 -- -- 90
2020-03-22 05:00:00 5.8 4 Sudeste 6 Sudeste 0 -- -- 90
2020-03-22 04:00:00 6.3 4 Sudeste 9 Este 0 -- -- 88
2020-03-22 03:00:00 6.8 5 Sudeste 12 Este 0 -- -- 87
2020-03-22 02:00:00 6.9 8 Este 17 Este 0 -- -- 86
2020-03-22 01:00:00 7.2 8 Este 17 Este 0 -- -- 85
2020-03-22 00:00:00 7.5 10 Este 17 Este 0 -- -- 85
2020-03-21 23:00:00 7.7 7 Este 18 Este 0 -- -- 85
2020-03-21 22:00:00 7.6 11 Este 19 Este 0 -- -- 85
2020-03-21 21:00:00 7.8 10 Sudeste 15 Este 0 -- -- 83
2020-03-21 20:00:00 8.7 8 Este 19 Sudeste 0 -- -- 79
2020-03-21 19:00:00 9.3 14 Sudeste 28 Sudeste 0 -- -- 75
2020-03-21 18:00:00 10.5 14 Sudeste 29 Sudeste 0 -- -- 70
2020-03-21 17:00:00 11.3 20 Sudeste 31 Sudeste 0 -- -- 64
2020-03-21 16:00:00 11.7 16 Este 33 Este 0 -- -- 63
2020-03-21 15:00:00 11.7 19 Sudeste 36 Sudeste 0 -- -- 62
2020-03-21 14:00:00 11.6 22 Sudeste 37 Este 0 -- -- 61
2020-03-21 13:00:00 10.7 23 Sudeste 44 Este 0 -- -- 67
2020-03-21 12:00:00 10 23 Sudeste 49 Sudeste 0 -- -- 70
2020-03-21 11:00:00 9.2 26 Sudeste 44 Este 0 -- -- 70
2020-03-21 10:00:00 9.2 25 Sudeste 43 Sudeste 0 -- -- 69
2020-03-21 09:00:00 7.9 22 Sudeste 41 Este 0 -- -- 80
2020-03-21 08:00:00 6.6 19 Este 31 Este 0 -- -- 87
2020-03-21 07:00:00 6.7 14 Este 28 Sudeste 0 -- -- 87
2020-03-21 06:00:00 7 17 Sudeste 31 Sudeste 0 -- -- 87
2020-03-21 05:00:00 7.5 19 Sudeste 33 Este 0 -- -- 84
2020-03-21 04:00:00 7.7 18 Este 30 Sudeste 0 -- -- 83
2020-03-21 03:00:00 7.9 18 Sudeste 35 Este 0 -- -- 83
2020-03-21 02:00:00 8.2 17 Este 39 Este 0 -- -- 84
2020-03-21 01:00:00 8.2 17 Este 26 Este 0 -- -- 85
2020-03-21 00:00:00 7.6 13 Este 24 Este 0 -- -- 80
2020-03-20 23:00:00 6.7 7 Este 17 Sudeste 0 -- -- 82
2020-03-20 22:00:00 7.6 12 Sudeste 27 Sudeste 0 -- -- 80
2020-03-20 21:00:00 8.3 16 Sudeste 28 Sudeste 0 -- -- 78
2020-03-20 20:00:00 8.8 16 Sudeste 31 Este 0 -- -- 76
2020-03-20 19:00:00 10.1 18 Sudeste 36 Sudeste 0 -- -- 71
2020-03-20 18:00:00 11.3 18 Sudeste 37 Sudeste 0 -- -- 67
2020-03-20 17:00:00 12.3 23 Sudeste 37 Sudeste 0 -- -- 65
2020-03-20 16:00:00 12.4 18 Sudeste 37 Este 0 -- -- 64
2020-03-20 15:00:00 13.3 18 Sudeste 35 Sudeste 0 -- -- 62
2020-03-20 14:00:00 12.4 21 Este 33 Este 0 -- -- 64
2020-03-20 13:00:00 11.2 19 Sudeste 35 Sudeste 0 -- -- 70
2020-03-20 12:00:00 11 19 Sudeste 36 Sudeste 0 -- -- 72
2020-03-20 11:00:00 10.2 21 Sudeste 39 Sudeste 0 -- -- 73
2020-03-20 10:00:00 9 23 Sudeste 40 Sudeste 0 -- -- 79
2020-03-20 09:00:00 7.7 19 Sudeste 36 Este 0 -- -- 84
2020-03-20 08:00:00 7 18 Sudeste 34 Sudeste 0 -- -- 86
2020-03-20 07:00:00 6.6 12 Sudeste 24 Este 0 -- -- 88
2020-03-20 06:00:00 6.9 13 Este 29 Sudeste 0 -- -- 87
2020-03-20 05:00:00 7 18 Sudeste 36 Este 0.2 -- -- 87
2020-03-20 04:00:00 7 17 Este 34 Este 0.2 -- -- 88
2020-03-20 03:00:00 7.6 19 Este 31 Este 0 -- -- 80
2020-03-20 02:00:00 7.9 18 Este 32 Este 0 -- -- 77
2020-03-20 01:00:00 8.3 20 Este 35 Este 0 -- -- 75
2020-03-20 00:00:00 8.2 19 Sudeste 34 Sudeste 0 -- -- 73
2020-03-19 23:00:00 8.6 19 Sudeste 32 Sudeste 0 -- -- 67
2020-03-19 22:00:00 9.4 19 Sudeste 32 Sudeste 0 -- -- 63
2020-03-19 21:00:00 10.1 15 Este 26 Este 0 -- -- 59
2020-03-19 20:00:00 10.9 15 Este 24 Este 0 -- -- 53
2020-03-19 19:00:00 12.5 12 Este 25 Este 0 -- -- 47
2020-03-19 18:00:00 13.7 17 Este 33 Sudeste 0 -- -- 36
2020-03-19 17:00:00 14.6 15 Este 35 Este 0 -- -- 36
2020-03-19 16:00:00 14.6 19 Este 35 Sudeste 0 -- -- 31
2020-03-19 15:00:00 14 18 Sudeste 35 Sudeste 0 -- -- 34
2020-03-19 14:00:00 13.5 17 Sudeste 34 Sudeste 0 -- -- 37
2020-03-19 13:00:00 13.7 21 Sudeste 39 Sudeste 0 -- -- 36
2020-03-19 12:00:00 13.2 22 Este 36 Este 0 -- -- 44
2020-03-19 11:00:00 11 15 Este 29 Este 0 -- -- 63
2020-03-19 10:00:00 8.4 14 Sudeste 22 Sudeste 0 -- -- 76
2020-03-19 09:00:00 6.5 8 Este 18 Este 0 -- -- 86
2020-03-19 08:00:00 5.5 5 Este 11 Sudeste 0 -- -- 91
2020-03-19 07:00:00 5.9 5 Sudeste 11 Este 0 -- -- 89
2020-03-19 06:00:00 6.9 5 Este 22 Este 0 -- -- 86
2020-03-19 05:00:00 8 13 Este 24 Este 0 -- -- 85
2020-03-19 04:00:00 8.1 10 Este 21 Este 0 -- -- 85
2020-03-19 03:00:00 8 9 Este 18 Este 0 -- -- 84
2020-03-19 02:00:00 8.5 12 Este 20 Este 0 -- -- 82
2020-03-19 01:00:00 8.8 10 Este 21 Este 0 -- -- 80
2020-03-19 00:00:00 9.1 12 Sudeste 20 Este 0 -- -- 83
2020-03-18 23:00:00 9.2 7 Este 10 Este 0 -- -- 82
2020-03-18 22:00:00 10 5 Sudeste 15 Este 0 -- -- 79
2020-03-18 21:00:00 10.6 8 Este 18 Sudeste 0 -- -- 75
2020-03-18 20:00:00 11.8 9 Este 20 Sudeste 0 -- -- 68
2020-03-18 19:00:00 13.4 8 Sudeste 18 Este 0 -- -- 64
2020-03-18 18:00:00 14.7 9 Sudeste 21 Este 0 -- -- 59
2020-03-18 17:00:00 16.1 15 Sudeste 28 Este 0 -- -- 54
2020-03-18 16:00:00 17.1 16 Sudeste 30 Sudeste 0 -- -- 51
2020-03-18 15:00:00 17.2 17 Sudeste 33 Sudeste 0 -- -- 51
2020-03-18 14:00:00 16.5 18 Sudeste 32 Sudeste 0 -- -- 55
2020-03-18 13:00:00 15.5 18 Sudeste 35 Este 0 -- -- 55
2020-03-18 12:00:00 14 20 Este 34 Este 0 -- -- 55
2020-03-18 11:00:00 12.2 21 Este 34 Este 0 -- -- 60
2020-03-18 10:00:00 8.6 14 Este 26 Este 0 -- -- 79
2020-03-18 09:00:00 6.3 7 Sudeste 12 Este 0 -- -- 91
2020-03-18 08:00:00 5.4 5 Este 11 Sudeste 0 -- -- 91
2020-03-18 07:00:00 5.6 7 Este 11 Sudeste 0 -- -- 90
2020-03-18 06:00:00 5.6 4 Este 10 Este 0 -- -- 91
2020-03-18 05:00:00 6.3 4 Sudeste 17 Este 0 -- -- 90
2020-03-18 04:00:00 7 9 Sudeste 14 Sudeste 0 -- -- 88
2020-03-18 03:00:00 8 6 Sudeste 25 Este 0 -- -- 85
2020-03-18 02:00:00 8.5 13 Este 22 Este 0 -- -- 84
2020-03-18 01:00:00 8.9 9 Sudeste 24 Este 0 -- -- 84
2020-03-18 00:00:00 9.1 13 Sudeste 25 Sudeste 0 -- -- 85
2020-03-17 23:00:00 9.2 14 Sudeste 26 Este 0 -- -- 84
2020-03-17 22:00:00 9.4 10 Este 25 Este 0 -- -- 85
2020-03-17 21:00:00 9.8 14 Este 30 Sudeste 0 -- -- 83
2020-03-17 20:00:00 10.1 17 Este 31 Este 0 -- -- 83
2020-03-17 19:00:00 10.7 17 Este 32 Sudeste 0 -- -- 81
2020-03-17 18:00:00 11.6 21 Sudeste 36 Sudeste 0 -- -- 76
2020-03-17 17:00:00 12.1 20 Sudeste 43 Sudeste 0 -- -- 73
2020-03-17 16:00:00 11.9 15 Sudeste 39 Sudeste 0 -- -- 76
2020-03-17 15:00:00 11.8 27 Sudeste 54 Sudeste 0 -- -- 76
2020-03-17 14:00:00 11.8 29 Este 51 Este 0 -- -- 76
2020-03-17 13:00:00 11.1 26 Este 56 Sudeste 0 -- -- 78
2020-03-17 12:00:00 9.8 21 Este 38 Este 0 -- -- 82
2020-03-17 11:00:00 8.7 3 Sur 19 Este 0 -- -- 86
2020-03-17 10:00:00 8.5 6 Sudeste 17 Este 0 -- -- 84
2020-03-17 09:00:00 8.1 9 Este 24 Este 0 -- -- 85
2020-03-17 08:00:00 6.9 8 Este 18 Nordeste 0.4 -- -- 89
2020-03-17 07:00:00 6.4 3 Nordeste 16 Nordeste 0.2 -- -- 83
2020-03-17 06:00:00 6.3 8 Nordeste 19 Nordeste 0 -- -- 80
2020-03-17 05:00:00 6.3 14 Nordeste 23 Nordeste 0 -- -- 79
2020-03-17 04:00:00 5.8 14 Nordeste 32 Nordeste 0 -- -- 78
2020-03-17 03:00:00 6.2 15 Nordeste 31 Nordeste 0 -- -- 78
2020-03-17 02:00:00 6.3 20 Nordeste 40 Nordeste 0 -- -- 76
2020-03-17 01:00:00 6.2 25 Nordeste 41 Nordeste 0 -- -- 75
2020-03-17 00:00:00 6.3 22 Nordeste 33 Nordeste 0 -- -- 76
2020-03-16 23:00:00 5.9 22 Nordeste 37 Nordeste 0 -- -- 78
2020-03-16 22:00:00 5.5 17 Nordeste 40 Nordeste 0 -- -- 83
2020-03-16 21:00:00 4.4 16 Nordeste 28 Norte 0.4 -- -- 92
2020-03-16 20:00:00 3.7 10 Nordeste 19 Nordeste 1.8 -- -- 92
2020-03-16 19:00:00 3.6 9 Sudeste 21 Este 1 -- -- 92
2020-03-16 18:00:00 4.2 10 Sudeste 31 Este 1.4 -- -- 88
2020-03-16 17:00:00 5.5 20 Nordeste 43 Este 0.2 -- -- 76
2020-03-16 16:00:00 5.7 23 Nordeste 40 Nordeste 0 -- -- 74
2020-03-16 15:00:00 5.1 20 Este 46 Nordeste 0.2 -- -- 78
2020-03-16 14:00:00 5.5 19 Este 37 Nordeste 0 -- -- 78
2020-03-16 13:00:00 4.8 18 Nordeste 36 Nordeste 0 -- -- 84
2020-03-16 12:00:00 3.1 16 Nordeste 32 Norte 0.8 -- -- 90
2020-03-16 11:00:00 3.4 12 Nordeste 26 Nordeste 0.2 -- -- 87
2020-03-16 10:00:00 2.7 15 Nordeste 41 Nordeste 0.2 -- -- 89
2020-03-16 09:00:00 1.6 15 Nordeste 22 Nordeste 1.4 -- -- 95
2020-03-16 08:00:00 0.7 8 Nordeste 12 Nordeste 1.2 -- -- 94
2020-03-16 07:00:00 1.4 8 Norte 31 Este 2.4 -- -- 93
2020-03-16 06:00:00 1.3 2 Oeste 8 Nordeste 1.2 -- -- 93
2020-03-16 05:00:00 2.2 0 Calma 12 Sudoeste 3 -- -- 92
2020-03-16 04:00:00 2.5 5 Oeste 33 Sudoeste 1 -- -- 92
2020-03-16 03:00:00 4.3 12 Sudoeste 26 Sudoeste 0.2 -- -- 91
2020-03-16 02:00:00 6.6 9 Sudeste 17 Sudeste 0 -- -- 93
2020-03-16 01:00:00 7 8 Sudeste 13 Sudeste 0 -- -- 91
2020-03-16 00:00:00 7.4 3 Sur 23 Sur 2.4 -- -- 86
2020-03-15 23:00:00 9.3 3 Sur 9 Sudoeste 0.6 -- -- 88
2020-03-15 22:00:00 9.5 4 Sur 14 Este 0 -- -- 90
2020-03-15 21:00:00 9.9 3 Nordeste 9 Este 0 -- -- 87
2020-03-15 20:00:00 10.2 4 Nordeste 8 Nordeste 0 -- -- 84
2020-03-15 19:00:00 11 5 Sur 14 Sudeste 0 -- -- 83
2020-03-15 18:00:00 11.1 3 Sur 35 Oeste 1 -- -- 80
2020-03-15 17:00:00 14 5 Sudoeste 17 Oeste 0.6 -- -- 67
2020-03-15 16:00:00 -- 12 Sur 23 Sudoeste 0 -- -- --
2020-03-15 15:00:00 18.8 13 Sudoeste 30 Oeste 0 -- -- 40
2020-03-15 14:00:00 17.9 19 Oeste 32 Oeste 0 -- -- 40
2020-03-15 13:00:00 17.6 16 Oeste 34 Sudoeste 0 -- -- 42
2020-03-15 12:00:00 16.2 7 Sur 16 Sur 0 -- -- 48
2020-03-15 11:00:00 14.4 7 Sudeste 19 Este 0 -- -- 50
2020-03-15 10:00:00 11.8 12 Este 20 Este 0 -- -- 53
2020-03-15 09:00:00 8.5 14 Sudeste 21 Este 0 -- -- 58
2020-03-15 08:00:00 5.3 9 Este 19 Este 0 -- -- 62
2020-03-15 07:00:00 4.2 11 Sudeste 15 Sudeste 0 -- -- 65
2020-03-15 06:00:00 3 6 Este 9 Este 0 -- -- 71
2020-03-15 05:00:00 3.2 4 Sudeste 12 Sudeste 0 -- -- 71
2020-03-15 04:00:00 4.1 3 Nordeste 6 Este 0 -- -- 68
2020-03-15 03:00:00 4.1 0 Calma 4 Norte 0 -- -- 69
2020-03-15 02:00:00 4.3 0 Calma 4 Norte 0 -- -- 69
2020-03-15 01:00:00 5.5 4 Nordeste 11 Este 0 -- -- 63
2020-03-15 00:00:00 4.7 3 Norte 9 Este 0 -- -- 64
2020-03-14 23:00:00 6 5 Nordeste 8 Nordeste 0 -- -- 59
2020-03-14 22:00:00 8.2 0 Calma 6 Nordeste 0 -- -- 46
2020-03-14 21:00:00 9.4 4 Norte 10 Noroeste 0 -- -- 46
2020-03-14 20:00:00 11 6 Noroeste 13 Noroeste 0 -- -- 44
2020-03-14 19:00:00 14.9 9 Oeste 17 Oeste 0 -- -- 34
2020-03-14 18:00:00 17 8 Oeste 15 Oeste 0 -- -- 27
2020-03-14 17:00:00 16.9 8 Oeste 20 Oeste 0 -- -- 35
2020-03-14 16:00:00 16.4 7 Noroeste 15 Noroeste 0 -- -- 38
2020-03-14 15:00:00 15.3 7 Oeste 18 Oeste 0 -- -- 41
2020-03-14 14:00:00 13.2 8 Sudoeste 14 Sudoeste 0 -- -- 60
2020-03-14 13:00:00 10.7 6 Sudoeste 12 Oeste 0 -- -- 76
2020-03-14 12:00:00 8.7 5 Sudoeste 9 Noroeste 0 -- -- 83
2020-03-14 11:00:00 5.3 4 Sudoeste 7 Sur 0 -- -- 96
2020-03-14 10:00:00 3.4 0 Calma 4 Sudeste 0 -- -- 97
2020-03-14 09:00:00 1.8 0 Calma 4 Norte 0 -- -- 96
2020-03-14 08:00:00 0.4 0 Calma 5 Norte 0 -- -- 96
2020-03-14 07:00:00 0.8 0 Calma 3 Norte 0 -- -- 95
2020-03-14 06:00:00 1.7 0 Calma 5 Sudoeste 0 -- -- 94
2020-03-14 05:00:00 2.2 0 Calma 5 Norte 0 -- -- 93
2020-03-14 04:00:00 2.5 0 Calma 6 Sur 0 -- -- 92
2020-03-14 03:00:00 3.3 5 Sur 7 Sudoeste 0 -- -- 92
2020-03-14 02:00:00 4.1 4 Sur 8 Noroeste 0 -- -- 91
2020-03-14 01:00:00 5.4 3 Sudeste 10 Sudeste 0 -- -- 87
2020-03-14 00:00:00 6.4 3 Noroeste 8 Noroeste 0 -- -- 87
2020-03-13 23:00:00 7.2 2 Oeste 9 Sur 0 -- -- 82
2020-03-13 22:00:00 8.4 4 Sur 14 Sudoeste 0 -- -- 80
2020-03-13 21:00:00 9.3 9 Sudoeste 14 Sudoeste 0 -- -- 77
2020-03-13 20:00:00 10.9 5 Oeste 15 Noroeste 0 -- -- 72
2020-03-13 19:00:00 12.9 9 Noroeste 21 Oeste 0 -- -- 66
2020-03-13 18:00:00 14.7 14 Noroeste 23 Oeste 0 -- -- 62
2020-03-13 17:00:00 17.8 9 Sudoeste 15 Oeste 0 -- -- 52
2020-03-13 16:00:00 18.2 8 Noroeste 18 Oeste 0 -- -- 51
2020-03-13 15:00:00 17.6 8 Sudeste 19 Sudeste 0 -- -- 51
2020-03-13 14:00:00 16.8 9 Sur 23 Este 0 -- -- 55
2020-03-13 13:00:00 15.9 7 Sudeste 21 Este 0 -- -- 58
2020-03-13 12:00:00 14.1 12 Sudeste 21 Sudeste 0 -- -- 63
2020-03-13 11:00:00 13 6 Este 15 Sudeste 0 -- -- 68
2020-03-13 10:00:00 10.6 5 Este 12 Sudeste 0 -- -- 77
2020-03-13 09:00:00 8.7 5 Sudeste 10 Este 0 -- -- 85
2020-03-13 08:00:00 6.5 4 Sudeste 6 Sudeste 0 -- -- 92
2020-03-13 07:00:00 6.5 0 Calma 8 Este 0 -- -- 91
2020-03-13 06:00:00 7.4 5 Este 9 Este 0 -- -- 90
2020-03-13 05:00:00 7.8 4 Norte 13 Oeste 0 -- -- 90
2020-03-13 04:00:00 7.7 3 Sudeste 9 Sudeste 0 -- -- 90
2020-03-13 03:00:00 7.7 4 Este 8 Sur 0 -- -- 89
2020-03-13 02:00:00 8.5 5 Sur 9 Sur 0 -- -- 86
2020-03-13 01:00:00 9.5 6 Sur 12 Sudoeste 0 -- -- 83
2020-03-13 00:00:00 10.7 3 Sur 9 Sudoeste 0 -- -- 79
2020-03-12 23:00:00 11.2 4 Sudoeste 21 Oeste 0 -- -- 77
2020-03-12 22:00:00 12.2 9 Sur 11 Sur 0 -- -- 74
2020-03-12 21:00:00 14.5 3 Sudoeste 9 Oeste 0 -- -- 62
2020-03-12 20:00:00 15.9 5 Norte 12 Norte 0 -- -- 56
2020-03-12 19:00:00 17.9 8 Noroeste 24 Noroeste 0 -- -- 54
2020-03-12 18:00:00 20.1 15 Noroeste 25 Noroeste 0 -- -- 45
2020-03-12 17:00:00 22.4 8 Oeste 18 Noroeste 0 -- -- 36
2020-03-12 16:00:00 22.1 9 Noroeste 21 Noroeste 0 -- -- 35
2020-03-12 15:00:00 22.4 14 Noroeste 26 Sudoeste 0 -- -- 34
2020-03-12 14:00:00 22.5 14 Sudoeste 24 Oeste 0 -- -- 35
2020-03-12 13:00:00 21.5 6 Sudoeste 14 Sudoeste 0 -- -- 36
2020-03-12 12:00:00 18.7 7 Sudeste 15 Sudeste 0 -- -- 51
2020-03-12 11:00:00 17.3 11 Sudeste 18 Sudeste 0 -- -- 54
2020-03-12 10:00:00 14.5 9 Sudeste 14 Este 0 -- -- 62
2020-03-12 09:00:00 12 7 Este 18 Sudeste 0 -- -- 66
2020-03-12 08:00:00 9.5 4 Este 8 Este 0 -- -- 74
2020-03-12 07:00:00 9.1 0 Calma 9 Sudeste 0 -- -- 74
2020-03-12 06:00:00 8.5 0 Calma 6 Este 0 -- -- 75
2020-03-12 05:00:00 8.5 3 Nordeste 8 Norte 0 -- -- 75
2020-03-12 04:00:00 10.1 5 Sudeste 9 Este 0 -- -- 70
2020-03-12 03:00:00 9.3 3 Este 6 Este 0 -- -- 73
2020-03-12 02:00:00 9.5 2 Este 7 Norte 0 -- -- 73
2020-03-12 01:00:00 9.9 2 Nordeste 6 Nordeste 0 -- -- 72
2020-03-12 00:00:00 11.1 3 Nordeste 11 Este 0 -- -- 67
2020-03-11 23:00:00 12.7 8 Sudeste 10 Sudeste 0 -- -- 61
2020-03-11 22:00:00 13.6 4 Nordeste 9 Norte 0 -- -- 57
2020-03-11 21:00:00 15.3 2 Este 4 Sur 0 -- -- 50
2020-03-11 20:00:00 16.1 3 Sudoeste 8 Oeste 0 -- -- 50
2020-03-11 19:00:00 18.4 4 Oeste 12 Oeste 0 -- -- 42
2020-03-11 18:00:00 20 7 Oeste 19 Oeste 0 -- -- 43
2020-03-11 17:00:00 21.8 11 Oeste 23 Sudoeste 0 -- -- 35
2020-03-11 16:00:00 22 8 Oeste 19 Sudoeste 0 -- -- 35
2020-03-11 15:00:00 21.3 10 Oeste 22 Oeste 0 -- -- 34
2020-03-11 14:00:00 20.2 7 Oeste 15 Sudoeste 0 -- -- 34
2020-03-11 13:00:00 18.5 9 Sudoeste 17 Oeste 0 -- -- 43
2020-03-11 12:00:00 16.7 5 Oeste 12 Sudoeste 0 -- -- 42
2020-03-11 11:00:00 14.7 5 Sudoeste 7 Sudoeste 0 -- -- 56
2020-03-11 10:00:00 12.4 2 Sudeste 5 Sudeste 0 -- -- 69
2020-03-11 09:00:00 7.5 2 Sudeste 5 Nordeste 0 -- -- 91
2020-03-11 08:00:00 4.1 4 Norte 5 Nordeste 0 -- -- 92
2020-03-11 07:00:00 4.9 0 Calma 6 Nordeste 0 -- -- 92
2020-03-11 06:00:00 3.7 4 Nordeste 6 Nordeste 0 -- -- 92
2020-03-11 05:00:00 5.4 4 Norte 6 Nordeste 0 -- -- 89
2020-03-11 04:00:00 5.2 4 Nordeste 6 Norte 0 -- -- 92
2020-03-11 03:00:00 5.5 4 Norte 5 Nordeste 0 -- -- 88
2020-03-11 02:00:00 6.9 3 Norte 4 Norte 0 -- -- 86
2020-03-11 01:00:00 7.4 3 Nordeste 8 Nordeste 0 -- -- 84
2020-03-11 00:00:00 8.3 4 Nordeste 6 Nordeste 0 -- -- 81
2020-03-10 23:00:00 10.3 6 Sur 9 Sur 0 -- -- 74
2020-03-10 22:00:00 11.1 6 Nordeste 8 Nordeste 0 -- -- 71
2020-03-10 21:00:00 12.2 6 Norte 9 Norte 0 -- -- 67
2020-03-10 20:00:00 14.2 3 Norte 7 Noroeste 0 -- -- 60
2020-03-10 19:00:00 16.8 5 Oeste 14 Noroeste 0 -- -- 52
2020-03-10 18:00:00 17.2 6 Oeste 19 Oeste 0 -- -- 49
2020-03-10 17:00:00 18.1 10 Oeste 22 Oeste 0 -- -- 46
2020-03-10 16:00:00 17.6 10 Oeste 18 Oeste 0 -- -- 46
2020-03-10 15:00:00 16.5 9 Oeste 20 Oeste 0 -- -- 49
2020-03-10 14:00:00 14.9 8 Oeste 17 Oeste 0 -- -- 50
2020-03-10 13:00:00 13.5 9 Noroeste 17 Oeste 0 -- -- 56
2020-03-10 12:00:00 11.7 5 Noroeste 13 Noroeste 0 -- -- 60
2020-03-10 11:00:00 9.6 10 Oeste 15 Oeste 0 -- -- 64
2020-03-10 10:00:00 7 5 Norte 8 Norte 0 -- -- 75
2020-03-10 09:00:00 4.4 5 Norte 7 Norte 0 -- -- 83
2020-03-10 08:00:00 3.4 6 Norte 8 Norte 0 -- -- 81
2020-03-10 07:00:00 3.7 3 Norte 7 Noroeste 0 -- -- 78
2020-03-10 06:00:00 4.2 6 Noroeste 10 Noroeste 0 -- -- 77
2020-03-10 05:00:00 3.8 6 Noroeste 10 Noroeste 0 -- -- 78
2020-03-10 04:00:00 4 6 Noroeste 11 Noroeste 0 -- -- 77
2020-03-10 03:00:00 3.4 6 Noroeste 9 Noroeste 0 -- -- 80
2020-03-10 02:00:00 3.5 0 Calma 12 Oeste 0 -- -- 79
2020-03-10 01:00:00 5 3 Oeste 14 Oeste 0 -- -- 71
2020-03-10 00:00:00 5.6 6 Oeste 13 Norte 0 -- -- 68
2020-03-09 23:00:00 6.2 8 Norte 14 Norte 0 -- -- 66
2020-03-09 22:00:00 5.9 4 Noroeste 10 Norte 0 -- -- 70
2020-03-09 21:00:00 6.7 5 Norte 11 Noroeste 0 -- -- 65
2020-03-09 20:00:00 8.3 8 Noroeste 21 Noroeste 0 -- -- 59
2020-03-09 19:00:00 9.7 15 Noroeste 28 Noroeste 0 -- -- 52
2020-03-09 18:00:00 10.8 19 Noroeste 30 Noroeste 0 -- -- 50
2020-03-09 17:00:00 11.7 18 Noroeste 38 Noroeste 0 -- -- 48
2020-03-09 16:00:00 11.5 23 Noroeste 36 Oeste 0 -- -- 51
2020-03-09 15:00:00 11.1 20 Noroeste 36 Noroeste 0 -- -- 53
2020-03-09 14:00:00 10.3 19 Noroeste 33 Oeste 0 -- -- 57
2020-03-09 13:00:00 9.2 18 Noroeste 30 Oeste 0 -- -- 66
2020-03-09 12:00:00 8 15 Oeste 24 Oeste 0 -- -- 70
2020-03-09 11:00:00 6.2 11 Oeste 24 Oeste 0 -- -- 81
2020-03-09 10:00:00 4.9 11 Oeste 18 Oeste 0 -- -- 87
2020-03-09 09:00:00 3.5 12 Oeste 21 Oeste 0 -- -- 92
2020-03-09 08:00:00 3 13 Oeste 20 Oeste 0 -- -- 94
2020-03-09 07:00:00 3.6 9 Oeste 15 Oeste 0 -- -- 95
2020-03-09 06:00:00 3.7 9 Oeste 19 Oeste 0 -- -- 95
2020-03-09 05:00:00 3.6 10 Oeste 16 Oeste 0 -- -- 94
2020-03-09 04:00:00 3.5 6 Noroeste 22 Oeste 0 -- -- 94
2020-03-09 03:00:00 4.4 14 Oeste 23 Oeste 0 -- -- 93
2020-03-09 02:00:00 5.5 9 Oeste 22 Oeste 0 -- -- 92
2020-03-09 01:00:00 6.3 12 Oeste 22 Oeste 0 -- -- 90
2020-03-09 00:00:00 7.3 11 Oeste 23 Oeste 0 -- -- 87